Marble Falls, TX (78654)

5:26 AM CST on January 18, 2017 (GMT -0600)
The Waterlands | | Change Station

Elev 837 ft 30.55 °N, 98.35 °W | Updated 5 seconds ago

Overcast
Overcast
44.4 °F
Feels Like 44 °F
N
0.0
Wind Variable Wind from North
Gusts 3.0 mph

Today
High -- | Low -- °F
--% Chance of Precip.
Yesterday
High -- | Low -- °F
Precip. -- in
Pressure 30.11 in
Visibility 7.0 miles
Clouds Overcast 400 ft
Windchill 44 °F
Dew Point 42 °F
Humidity 93%
Rainfall 0.18 in
Snow Depth Not available.
7:30 AM 5:57 PM
Waning Gibbous, 64% visible
METAR KDZB 181115Z AUTO 30005KT 7SM OVC004 08/08 A3011 RMK AO2 LTG DSNT NW T00800078
Pressure 30.11 in
Visibility 7.0 miles
Clouds Overcast 400 ft
Windchill 44 °F
Dew Point 42 °F
Humidity 93%
Rainfall 0.18 in
Snow Depth Not available.
7:30 AM 5:57 PM
Waning Gibbous, 64% visible
METAR KDZB 181115Z AUTO 30005KT 7SM OVC004 08/08 A3011 RMK AO2 LTG DSNT NW T00800078

Get Your Daily Forecast Email!

Thanks for signing up!

Be on the lookout for a verification email in your inbox.

You'll start receiving the daily forecast at 8 AM.

×

10-Day Weather Forecast

Almanac

Astronomy

Jan. 18, 2017 Rise Set
Actual Time
Civil Twilight
Nautical Twilight
Astronomical Twilight
Moon
Length of Visible Light
Length of Day
Tomorrow will be .
, % of the Moon is Illuminated

Today's Extremes

State Highs State Lows

Community

WunderPhotos

Upload Photos

1,962,540 photos uploaded!

WunderBlog® & News

Nearby

Air Quality

  Air Quality AQ Index Pollutant
Not available.

Snow Depth

Station Depth Elevation

Earthquake Activity

City Distance Mag. Time & Date
Minimum magnitude displayed is 2.5.

Coastal Water Temperatures

Place Temperature

Stations

Nearby Weather Stations

Station Location Temp. Windchill Dew Point Humidity Wind Precip. Elev Updated Type
                   

Watches & Warnings

There are currently no watches in effect.